sensor_id;sensor_type;location;lat;lon;timestamp;P1;durP1;ratioP1;P2;durP2;ratioP2
13483;SDS011;6814;57.786;12.080;2023-04-15T00:01:58;15.23;;;10.63;;
13483;SDS011;6814;57.786;12.080;2023-04-15T00:04:25;12.93;;;9.77;;
13483;SDS011;6814;57.786;12.080;2023-04-15T00:06:51;14.90;;;9.70;;
13483;SDS011;6814;57.786;12.080;2023-04-15T00:09:18;15.63;;;10.70;;
13483;SDS011;6814;57.786;12.080;2023-04-15T00:11:45;13.37;;;9.90;;
13483;SDS011;6814;57.786;12.080;2023-04-15T00:14:12;12.97;;;9.83;;
13483;SDS011;6814;57.786;12.080;2023-04-15T00:16:38;15.43;;;10.77;;
13483;SDS011;6814;57.786;12.080;2023-04-15T00:19:06;12.60;;;10.17;;
13483;SDS011;6814;57.786;12.080;2023-04-15T00:21:33;14.80;;;9.40;;
13483;SDS011;6814;57.786;12.080;2023-04-15T00:24:00;12.10;;;10.07;;
13483;SDS011;6814;57.786;12.080;2023-04-15T00:26:26;13.17;;;10.00;;
13483;SDS011;6814;57.786;12.080;2023-04-15T00:28:52;15.33;;;9.30;;
13483;SDS011;6814;57.786;12.080;2023-04-15T00:31:19;13.93;;;9.47;;
13483;SDS011;6814;57.786;12.080;2023-04-15T00:33:45;13.30;;;9.63;;
13483;SDS011;6814;57.786;12.080;2023-04-15T00:36:14;13.40;;;10.17;;
13483;SDS011;6814;57.786;12.080;2023-04-15T00:38:40;11.03;;;9.37;;
13483;SDS011;6814;57.786;12.080;2023-04-15T00:41:07;12.97;;;9.57;;
13483;SDS011;6814;57.786;12.080;2023-04-15T00:43:34;13.63;;;9.20;;
13483;SDS011;6814;57.786;12.080;2023-04-15T00:46:03;13.23;;;9.60;;
13483;SDS011;6814;57.786;12.080;2023-04-15T00:48:29;13.53;;;9.50;;
13483;SDS011;6814;57.786;12.080;2023-04-15T00:50:56;15.73;;;10.07;;
13483;SDS011;6814;57.786;12.080;2023-04-15T00:53:24;11.97;;;9.50;;
13483;SDS011;6814;57.786;12.080;2023-04-15T00:55:51;13.80;;;9.00;;
13483;SDS011;6814;57.786;12.080;2023-04-15T00:58:17;11.70;;;9.03;;
13483;SDS011;6814;57.786;12.080;2023-04-15T01:00:44;13.20;;;9.83;;
13483;SDS011;6814;57.786;12.080;2023-04-15T01:03:10;10.40;;;8.97;;
13483;SDS011;6814;57.786;12.080;2023-04-15T01:05:37;13.67;;;9.40;;
13483;SDS011;6814;57.786;12.080;2023-04-15T01:08:04;12.17;;;9.23;;
13483;SDS011;6814;57.786;12.080;2023-04-15T01:10:32;11.37;;;9.63;;
13483;SDS011;6814;57.786;12.080;2023-04-15T01:12:58;10.90;;;9.07;;
13483;SDS011;6814;57.786;12.080;2023-04-15T01:15:25;10.30;;;9.20;;
13483;SDS011;6814;57.786;12.080;2023-04-15T01:17:51;13.07;;;9.27;;
13483;SDS011;6814;57.786;12.080;2023-04-15T01:20:18;12.10;;;10.20;;
13483;SDS011;6814;57.786;12.080;2023-04-15T01:22:44;14.00;;;9.57;;
13483;SDS011;6814;57.786;12.080;2023-04-15T01:25:11;12.03;;;9.67;;
13483;SDS011;6814;57.786;12.080;2023-04-15T01:27:40;13.93;;;9.77;;
13483;SDS011;6814;57.786;12.080;2023-04-15T01:30:07;13.47;;;9.43;;
13483;SDS011;6814;57.786;12.080;2023-04-15T01:32:34;12.60;;;10.03;;
13483;SDS011;6814;57.786;12.080;2023-04-15T01:35:01;12.43;;;9.50;;
13483;SDS011;6814;57.786;12.080;2023-04-15T01:37:27;11.13;;;9.80;;
13483;SDS011;6814;57.786;12.080;2023-04-15T01:39:54;11.10;;;9.27;;
13483;SDS011;6814;57.786;12.080;2023-04-15T01:42:21;12.17;;;9.27;;
13483;SDS011;6814;57.786;12.080;2023-04-15T01:44:49;11.43;;;9.63;;
13483;SDS011;6814;57.786;12.080;2023-04-15T01:47:16;11.40;;;9.30;;
13483;SDS011;6814;57.786;12.080;2023-04-15T01:49:42;12.80;;;9.47;;
13483;SDS011;6814;57.786;12.080;2023-04-15T01:52:09;11.43;;;9.63;;
13483;SDS011;6814;57.786;12.080;2023-04-15T01:54:35;12.87;;;9.37;;
13483;SDS011;6814;57.786;12.080;2023-04-15T01:57:01;12.30;;;9.30;;
13483;SDS011;6814;57.786;12.080;2023-04-15T01:59:29;12.70;;;9.60;;
13483;SDS011;6814;57.786;12.080;2023-04-15T02:01:57;12.43;;;10.33;;
13483;SDS011;6814;57.786;12.080;2023-04-15T02:04:24;11.73;;;9.70;;
13483;SDS011;6814;57.786;12.080;2023-04-15T02:06:52;12.60;;;9.83;;
13483;SDS011;6814;57.786;12.080;2023-04-15T02:09:18;12.00;;;9.60;;
13483;SDS011;6814;57.786;12.080;2023-04-15T02:11:45;11.50;;;9.97;;
13483;SDS011;6814;57.786;12.080;2023-04-15T02:14:11;14.83;;;10.93;;
13483;SDS011;6814;57.786;12.080;2023-04-15T02:16:38;12.90;;;9.93;;
13483;SDS011;6814;57.786;12.080;2023-04-15T02:19:06;12.83;;;10.70;;
13483;SDS011;6814;57.786;12.080;2023-04-15T02:21:33;13.63;;;10.73;;
13483;SDS011;6814;57.786;12.080;2023-04-15T02:24:00;12.70;;;10.70;;
13483;SDS011;6814;57.786;12.080;2023-04-15T02:26:28;18.77;;;10.50;;
13483;SDS011;6814;57.786;12.080;2023-04-15T02:28:56;13.93;;;10.80;;
13483;SDS011;6814;57.786;12.080;2023-04-15T02:31:23;12.67;;;11.03;;
13483;SDS011;6814;57.786;12.080;2023-04-15T02:33:50;13.73;;;10.30;;
13483;SDS011;6814;57.786;12.080;2023-04-15T02:36:18;12.93;;;10.50;;
13483;SDS011;6814;57.786;12.080;2023-04-15T02:38:45;14.43;;;10.77;;
13483;SDS011;6814;57.786;12.080;2023-04-15T02:41:11;12.20;;;10.87;;
13483;SDS011;6814;57.786;12.080;2023-04-15T02:43:38;14.23;;;10.50;;
13483;SDS011;6814;57.786;12.080;2023-04-15T02:46:04;12.93;;;10.40;;
13483;SDS011;6814;57.786;12.080;2023-04-15T02:48:31;14.47;;;10.73;;
13483;SDS011;6814;57.786;12.080;2023-04-15T02:51:10;13.80;;;10.07;;
13483;SDS011;6814;57.786;12.080;2023-04-15T02:53:38;16.07;;;11.70;;
13483;SDS011;6814;57.786;12.080;2023-04-15T02:56:05;17.13;;;11.27;;
13483;SDS011;6814;57.786;12.080;2023-04-15T02:58:32;14.53;;;10.73;;
13483;SDS011;6814;57.786;12.080;2023-04-15T03:00:59;13.17;;;11.07;;
13483;SDS011;6814;57.786;12.080;2023-04-15T03:03:25;13.40;;;11.23;;
13483;SDS011;6814;57.786;12.080;2023-04-15T03:05:52;14.13;;;10.37;;
13483;SDS011;6814;57.786;12.080;2023-04-15T03:08:18;15.73;;;11.30;;
13483;SDS011;6814;57.786;12.080;2023-04-15T03:10:47;16.73;;;11.40;;
13483;SDS011;6814;57.786;12.080;2023-04-15T03:13:16;15.03;;;10.80;;
13483;SDS011;6814;57.786;12.080;2023-04-15T03:15:42;13.50;;;10.10;;
13483;SDS011;6814;57.786;12.080;2023-04-15T03:18:09;14.77;;;10.93;;
13483;SDS011;6814;57.786;12.080;2023-04-15T03:20:35;16.20;;;10.47;;
13483;SDS011;6814;57.786;12.080;2023-04-15T03:23:02;14.80;;;11.13;;
13483;SDS011;6814;57.786;12.080;2023-04-15T03:25:29;14.57;;;10.80;;
13483;SDS011;6814;57.786;12.080;2023-04-15T03:27:58;13.83;;;9.67;;
13483;SDS011;6814;57.786;12.080;2023-04-15T03:30:25;15.70;;;11.07;;
13483;SDS011;6814;57.786;12.080;2023-04-15T03:32:51;14.30;;;10.80;;
13483;SDS011;6814;57.786;12.080;2023-04-15T03:35:17;12.60;;;10.80;;
13483;SDS011;6814;57.786;12.080;2023-04-15T03:37:44;17.70;;;10.10;;
13483;SDS011;6814;57.786;12.080;2023-04-15T03:40:11;13.40;;;10.60;;
13483;SDS011;6814;57.786;12.080;2023-04-15T03:42:37;17.43;;;11.17;;
13483;SDS011;6814;57.786;12.080;2023-04-15T03:45:07;16.57;;;10.70;;
13483;SDS011;6814;57.786;12.080;2023-04-15T03:47:33;17.80;;;10.77;;
13483;SDS011;6814;57.786;12.080;2023-04-15T03:50:00;14.90;;;11.43;;
13483;SDS011;6814;57.786;12.080;2023-04-15T03:52:26;17.43;;;10.53;;
13483;SDS011;6814;57.786;12.080;2023-04-15T03:54:53;14.37;;;10.50;;
13483;SDS011;6814;57.786;12.080;2023-04-15T03:57:20;15.57;;;10.57;;
13483;SDS011;6814;57.786;12.080;2023-04-15T03:59:46;15.83;;;10.53;;
13483;SDS011;6814;57.786;12.080;2023-04-15T04:02:14;14.30;;;10.70;;
13483;SDS011;6814;57.786;12.080;2023-04-15T04:04:40;14.47;;;10.67;;
13483;SDS011;6814;57.786;12.080;2023-04-15T04:07:07;20.33;;;10.87;;
13483;SDS011;6814;57.786;12.080;2023-04-15T04:09:34;15.93;;;10.33;;
13483;SDS011;6814;57.786;12.080;2023-04-15T04:12:00;15.23;;;10.83;;
13483;SDS011;6814;57.786;12.080;2023-04-15T04:14:28;16.23;;;10.20;;
13483;SDS011;6814;57.786;12.080;2023-04-15T04:16:54;14.80;;;10.70;;
13483;SDS011;6814;57.786;12.080;2023-04-15T04:19:22;14.77;;;10.63;;
13483;SDS011;6814;57.786;12.080;2023-04-15T04:21:49;14.23;;;10.70;;
13483;SDS011;6814;57.786;12.080;2023-04-15T04:24:16;14.97;;;10.57;;
13483;SDS011;6814;57.786;12.080;2023-04-15T04:26:42;16.17;;;10.60;;
13483;SDS011;6814;57.786;12.080;2023-04-15T04:29:09;16.27;;;11.17;;
13483;SDS011;6814;57.786;12.080;2023-04-15T04:31:35;17.90;;;10.63;;
13483;SDS011;6814;57.786;12.080;2023-04-15T04:34:02;15.43;;;11.13;;
13483;SDS011;6814;57.786;12.080;2023-04-15T04:36:30;16.40;;;10.37;;
13483;SDS011;6814;57.786;12.080;2023-04-15T04:38:56;16.57;;;10.60;;
13483;SDS011;6814;57.786;12.080;2023-04-15T04:41:23;17.40;;;11.17;;
13483;SDS011;6814;57.786;12.080;2023-04-15T04:43:49;15.10;;;10.43;;
13483;SDS011;6814;57.786;12.080;2023-04-15T04:46:16;15.83;;;9.73;;
13483;SDS011;6814;57.786;12.080;2023-04-15T04:48:42;12.07;;;10.37;;
13483;SDS011;6814;57.786;12.080;2023-04-15T04:51:09;14.53;;;10.57;;
13483;SDS011;6814;57.786;12.080;2023-04-15T04:53:36;13.97;;;10.17;;
13483;SDS011;6814;57.786;12.080;2023-04-15T04:56:03;15.30;;;10.57;;
13483;SDS011;6814;57.786;12.080;2023-04-15T04:58:30;15.23;;;10.50;;
13483;SDS011;6814;57.786;12.080;2023-04-15T05:00:56;14.83;;;10.80;;
13483;SDS011;6814;57.786;12.080;2023-04-15T05:03:23;15.60;;;10.70;;
13483;SDS011;6814;57.786;12.080;2023-04-15T05:05:49;14.67;;;10.87;;
13483;SDS011;6814;57.786;12.080;2023-04-15T05:08:16;16.33;;;11.17;;
13483;SDS011;6814;57.786;12.080;2023-04-15T05:10:44;13.40;;;10.90;;
13483;SDS011;6814;57.786;12.080;2023-04-15T05:13:10;12.53;;;9.97;;
13483;SDS011;6814;57.786;12.080;2023-04-15T05:15:36;15.77;;;10.83;;
13483;SDS011;6814;57.786;12.080;2023-04-15T05:18:05;17.07;;;11.17;;
13483;SDS011;6814;57.786;12.080;2023-04-15T05:20:31;14.30;;;10.93;;
13483;SDS011;6814;57.786;12.080;2023-04-15T05:22:58;16.40;;;11.43;;
13483;SDS011;6814;57.786;12.080;2023-04-15T05:25:24;17.27;;;11.40;;
13483;SDS011;6814;57.786;12.080;2023-04-15T05:27:52;15.50;;;10.90;;
13483;SDS011;6814;57.786;12.080;2023-04-15T05:30:19;16.43;;;11.10;;
13483;SDS011;6814;57.786;12.080;2023-04-15T05:32:46;16.47;;;11.53;;
13483;SDS011;6814;57.786;12.080;2023-04-15T05:35:12;19.63;;;11.03;;
13483;SDS011;6814;57.786;12.080;2023-04-15T05:37:39;14.70;;;10.77;;
13483;SDS011;6814;57.786;12.080;2023-04-15T05:40:05;17.37;;;10.73;;
13483;SDS011;6814;57.786;12.080;2023-04-15T05:42:34;12.67;;;10.03;;
13483;SDS011;6814;57.786;12.080;2023-04-15T05:45:02;14.63;;;10.70;;
13483;SDS011;6814;57.786;12.080;2023-04-15T05:47:29;17.07;;;11.30;;
13483;SDS011;6814;57.786;12.080;2023-04-15T05:49:56;16.50;;;10.60;;
13483;SDS011;6814;57.786;12.080;2023-04-15T05:52:23;19.13;;;12.00;;
13483;SDS011;6814;57.786;12.080;2023-04-15T05:54:49;13.63;;;10.83;;
13483;SDS011;6814;57.786;12.080;2023-04-15T05:57:16;16.87;;;11.30;;
13483;SDS011;6814;57.786;12.080;2023-04-15T05:59:42;16.67;;;11.13;;
13483;SDS011;6814;57.786;12.080;2023-04-15T06:02:10;15.37;;;10.87;;
13483;SDS011;6814;57.786;12.080;2023-04-15T06:04:37;17.63;;;11.30;;
13483;SDS011;6814;57.786;12.080;2023-04-15T06:07:03;12.97;;;9.97;;
13483;SDS011;6814;57.786;12.080;2023-04-15T06:09:30;15.90;;;11.10;;
13483;SDS011;6814;57.786;12.080;2023-04-15T06:11:57;16.27;;;10.97;;
13483;SDS011;6814;57.786;12.080;2023-04-15T06:14:23;15.90;;;9.77;;
13483;SDS011;6814;57.786;12.080;2023-04-15T06:16:50;14.20;;;10.77;;
13483;SDS011;6814;57.786;12.080;2023-04-15T06:19:18;14.10;;;10.73;;
13483;SDS011;6814;57.786;12.080;2023-04-15T06:21:46;15.80;;;10.13;;
13483;SDS011;6814;57.786;12.080;2023-04-15T06:24:12;13.20;;;10.00;;
13483;SDS011;6814;57.786;12.080;2023-04-15T06:26:38;17.27;;;10.70;;
13483;SDS011;6814;57.786;12.080;2023-04-15T06:29:05;17.97;;;10.63;;
13483;SDS011;6814;57.786;12.080;2023-04-15T06:31:32;14.67;;;10.43;;
13483;SDS011;6814;57.786;12.080;2023-04-15T06:33:58;17.00;;;11.17;;
13483;SDS011;6814;57.786;12.080;2023-04-15T06:36:26;15.53;;;10.40;;
13483;SDS011;6814;57.786;12.080;2023-04-15T06:38:52;13.47;;;10.27;;
13483;SDS011;6814;57.786;12.080;2023-04-15T06:41:19;14.53;;;11.17;;
13483;SDS011;6814;57.786;12.080;2023-04-15T06:43:45;13.67;;;10.40;;
13483;SDS011;6814;57.786;12.080;2023-04-15T06:46:12;14.57;;;11.10;;
13483;SDS011;6814;57.786;12.080;2023-04-15T06:48:38;15.70;;;10.77;;
13483;SDS011;6814;57.786;12.080;2023-04-15T06:51:05;14.30;;;10.27;;
13483;SDS011;6814;57.786;12.080;2023-04-15T06:53:33;15.67;;;10.67;;
13483;SDS011;6814;57.786;12.080;2023-04-15T06:55:59;13.60;;;10.93;;
13483;SDS011;6814;57.786;12.080;2023-04-15T06:58:26;16.17;;;10.17;;
13483;SDS011;6814;57.786;12.080;2023-04-15T07:00:52;18.23;;;10.97;;
13483;SDS011;6814;57.786;12.080;2023-04-15T07:03:19;17.10;;;10.63;;
13483;SDS011;6814;57.786;12.080;2023-04-15T07:05:45;15.50;;;10.60;;
13483;SDS011;6814;57.786;12.080;2023-04-15T07:08:12;13.77;;;9.63;;
13483;SDS011;6814;57.786;12.080;2023-04-15T07:10:40;14.10;;;9.70;;
13483;SDS011;6814;57.786;12.080;2023-04-15T07:13:06;14.70;;;9.70;;
13483;SDS011;6814;57.786;12.080;2023-04-15T07:15:33;15.40;;;10.67;;
13483;SDS011;6814;57.786;12.080;2023-04-15T07:17:59;15.77;;;10.50;;
13483;SDS011;6814;57.786;12.080;2023-04-15T07:20:26;12.73;;;9.87;;
13483;SDS011;6814;57.786;12.080;2023-04-15T07:22:52;13.83;;;10.00;;
13483;SDS011;6814;57.786;12.080;2023-04-15T07:25:19;12.97;;;10.00;;
13483;SDS011;6814;57.786;12.080;2023-04-15T07:27:53;14.70;;;9.70;;
13483;SDS011;6814;57.786;12.080;2023-04-15T07:30:19;12.90;;;9.70;;
13483;SDS011;6814;57.786;12.080;2023-04-15T07:32:46;12.60;;;9.40;;
13483;SDS011;6814;57.786;12.080;2023-04-15T07:35:12;13.40;;;9.67;;
13483;SDS011;6814;57.786;12.080;2023-04-15T07:37:38;11.47;;;9.00;;
13483;SDS011;6814;57.786;12.080;2023-04-15T07:40:07;12.43;;;9.47;;
13483;SDS011;6814;57.786;12.080;2023-04-15T07:42:34;13.80;;;9.83;;
13483;SDS011;6814;57.786;12.080;2023-04-15T07:45:11;11.83;;;8.90;;
13483;SDS011;6814;57.786;12.080;2023-04-15T07:47:45;11.53;;;9.10;;
13483;SDS011;6814;57.786;12.080;2023-04-15T07:50:14;14.73;;;9.63;;
13483;SDS011;6814;57.786;12.080;2023-04-15T07:52:41;11.83;;;9.43;;
13483;SDS011;6814;57.786;12.080;2023-04-15T07:55:08;12.83;;;9.73;;
13483;SDS011;6814;57.786;12.080;2023-04-15T07:57:35;14.03;;;9.90;;
13483;SDS011;6814;57.786;12.080;2023-04-15T08:00:03;11.47;;;8.87;;
13483;SDS011;6814;57.786;12.080;2023-04-15T08:02:31;12.03;;;9.10;;
13483;SDS011;6814;57.786;12.080;2023-04-15T08:04:58;12.47;;;9.30;;
13483;SDS011;6814;57.786;12.080;2023-04-15T08:07:26;11.63;;;8.63;;
13483;SDS011;6814;57.786;12.080;2023-04-15T08:09:53;10.90;;;9.00;;
13483;SDS011;6814;57.786;12.080;2023-04-15T08:12:20;11.90;;;8.83;;
13483;SDS011;6814;57.786;12.080;2023-04-15T08:14:46;11.80;;;9.07;;
13483;SDS011;6814;57.786;12.080;2023-04-15T08:17:15;13.10;;;9.37;;
13483;SDS011;6814;57.786;12.080;2023-04-15T08:19:41;12.83;;;9.57;;
13483;SDS011;6814;57.786;12.080;2023-04-15T08:22:08;12.80;;;9.40;;
13483;SDS011;6814;57.786;12.080;2023-04-15T08:24:36;11.90;;;8.73;;
13483;SDS011;6814;57.786;12.080;2023-04-15T08:27:03;10.77;;;8.87;;
13483;SDS011;6814;57.786;12.080;2023-04-15T08:29:29;12.83;;;9.13;;
13483;SDS011;6814;57.786;12.080;2023-04-15T08:31:56;12.53;;;9.70;;
13483;SDS011;6814;57.786;12.080;2023-04-15T08:34:24;15.37;;;8.87;;
13483;SDS011;6814;57.786;12.080;2023-04-15T08:36:50;13.33;;;9.63;;
13483;SDS011;6814;57.786;12.080;2023-04-15T08:39:17;14.90;;;9.80;;
13483;SDS011;6814;57.786;12.080;2023-04-15T08:41:44;12.10;;;9.00;;
13483;SDS011;6814;57.786;12.080;2023-04-15T08:44:11;11.80;;;9.67;;
13483;SDS011;6814;57.786;12.080;2023-04-15T08:46:38;12.30;;;9.00;;
13483;SDS011;6814;57.786;12.080;2023-04-15T08:49:08;15.00;;;8.83;;
13483;SDS011;6814;57.786;12.080;2023-04-15T08:51:37;14.17;;;9.50;;
13483;SDS011;6814;57.786;12.080;2023-04-15T08:54:03;16.33;;;10.23;;
13483;SDS011;6814;57.786;12.080;2023-04-15T08:56:31;11.90;;;9.33;;
13483;SDS011;6814;57.786;12.080;2023-04-15T08:58:58;11.13;;;9.27;;
13483;SDS011;6814;57.786;12.080;2023-04-15T09:01:24;14.87;;;9.53;;
13483;SDS011;6814;57.786;12.080;2023-04-15T09:03:51;10.97;;;8.50;;
13483;SDS011;6814;57.786;12.080;2023-04-15T09:06:19;11.60;;;8.83;;
13483;SDS011;6814;57.786;12.080;2023-04-15T09:08:47;12.43;;;9.60;;
13483;SDS011;6814;57.786;12.080;2023-04-15T09:11:13;12.67;;;8.50;;
13483;SDS011;6814;57.786;12.080;2023-04-15T09:13:41;10.67;;;8.60;;
13483;SDS011;6814;57.786;12.080;2023-04-15T09:16:08;13.50;;;9.30;;
13483;SDS011;6814;57.786;12.080;2023-04-15T09:18:35;11.97;;;8.87;;
13483;SDS011;6814;57.786;12.080;2023-04-15T09:21:04;13.13;;;8.73;;
13483;SDS011;6814;57.786;12.080;2023-04-15T09:23:33;12.93;;;9.57;;
13483;SDS011;6814;57.786;12.080;2023-04-15T09:26:01;10.93;;;8.30;;
13483;SDS011;6814;57.786;12.080;2023-04-15T09:28:27;10.40;;;8.83;;
13483;SDS011;6814;57.786;12.080;2023-04-15T09:30:54;11.07;;;8.97;;
13483;SDS011;6814;57.786;12.080;2023-04-15T09:33:21;15.30;;;9.80;;
13483;SDS011;6814;57.786;12.080;2023-04-15T09:35:55;11.37;;;9.10;;
13483;SDS011;6814;57.786;12.080;2023-04-15T09:38:21;9.97;;;8.53;;
13483;SDS011;6814;57.786;12.080;2023-04-15T09:40:47;12.10;;;9.47;;
13483;SDS011;6814;57.786;12.080;2023-04-15T09:43:15;11.13;;;8.77;;
13483;SDS011;6814;57.786;12.080;2023-04-15T09:45:45;11.77;;;8.27;;
13483;SDS011;6814;57.786;12.080;2023-04-15T09:48:16;10.07;;;8.10;;
13483;SDS011;6814;57.786;12.080;2023-04-15T09:50:43;9.87;;;8.33;;
13483;SDS011;6814;57.786;12.080;2023-04-15T09:53:09;9.70;;;8.23;;
13483;SDS011;6814;57.786;12.080;2023-04-15T09:55:36;9.10;;;8.17;;
13483;SDS011;6814;57.786;12.080;2023-04-15T09:58:07;12.40;;;9.40;;
13483;SDS011;6814;57.786;12.080;2023-04-15T10:00:35;10.50;;;8.43;;
13483;SDS011;6814;57.786;12.080;2023-04-15T10:03:02;11.03;;;8.50;;
13483;SDS011;6814;57.786;12.080;2023-04-15T10:05:31;9.90;;;8.13;;
13483;SDS011;6814;57.786;12.080;2023-04-15T10:07:58;9.37;;;8.33;;
13483;SDS011;6814;57.786;12.080;2023-04-15T10:10:24;9.03;;;8.03;;
13483;SDS011;6814;57.786;12.080;2023-04-15T10:12:51;11.87;;;8.17;;
13483;SDS011;6814;57.786;12.080;2023-04-15T10:15:18;9.67;;;8.20;;
13483;SDS011;6814;57.786;12.080;2023-04-15T10:17:47;10.47;;;8.53;;
13483;SDS011;6814;57.786;12.080;2023-04-15T10:20:15;8.60;;;7.80;;
13483;SDS011;6814;57.786;12.080;2023-04-15T10:22:42;10.53;;;8.00;;
13483;SDS011;6814;57.786;12.080;2023-04-15T10:25:10;10.10;;;8.10;;
13483;SDS011;6814;57.786;12.080;2023-04-15T10:27:38;8.60;;;7.43;;
13483;SDS011;6814;57.786;12.080;2023-04-15T10:30:06;9.07;;;7.77;;
13483;SDS011;6814;57.786;12.080;2023-04-15T10:32:33;8.13;;;7.30;;
13483;SDS011;6814;57.786;12.080;2023-04-15T10:35:01;9.83;;;7.50;;
13483;SDS011;6814;57.786;12.080;2023-04-15T10:37:33;9.40;;;8.10;;
13483;SDS011;6814;57.786;12.080;2023-04-15T10:39:59;9.93;;;8.03;;
13483;SDS011;6814;57.786;12.080;2023-04-15T10:42:32;8.63;;;7.50;;
13483;SDS011;6814;57.786;12.080;2023-04-15T10:44:58;10.60;;;7.43;;
13483;SDS011;6814;57.786;12.080;2023-04-15T10:47:25;10.83;;;8.20;;
13483;SDS011;6814;57.786;12.080;2023-04-15T10:49:55;7.90;;;7.10;;
13483;SDS011;6814;57.786;12.080;2023-04-15T10:52:25;9.00;;;7.70;;
13483;SDS011;6814;57.786;12.080;2023-04-15T10:55:00;11.17;;;7.63;;
13483;SDS011;6814;57.786;12.080;2023-04-15T10:57:27;11.97;;;7.57;;
13483;SDS011;6814;57.786;12.080;2023-04-15T11:00:00;8.43;;;7.60;;
13483;SDS011;6814;57.786;12.080;2023-04-15T11:02:38;10.50;;;7.80;;
13483;SDS011;6814;57.786;12.080;2023-04-15T11:05:05;9.20;;;7.20;;
13483;SDS011;6814;57.786;12.080;2023-04-15T11:07:40;8.07;;;6.93;;
13483;SDS011;6814;57.786;12.080;2023-04-15T11:12:53;8.33;;;7.53;;
13483;SDS011;6814;57.786;12.080;2023-04-15T11:15:27;10.47;;;7.33;;
13483;SDS011;6814;57.786;12.080;2023-04-15T11:17:54;8.53;;;7.73;;
13483;SDS011;6814;57.786;12.080;2023-04-15T11:20:20;8.57;;;7.37;;
13483;SDS011;6814;57.786;12.080;2023-04-15T11:22:49;8.60;;;7.77;;
13483;SDS011;6814;57.786;12.080;2023-04-15T11:25:22;7.67;;;6.97;;
13483;SDS011;6814;57.786;12.080;2023-04-15T11:27:48;8.43;;;6.93;;
13483;SDS011;6814;57.786;12.080;2023-04-15T11:30:19;8.37;;;7.07;;
13483;SDS011;6814;57.786;12.080;2023-04-15T11:32:46;9.13;;;6.70;;
13483;SDS011;6814;57.786;12.080;2023-04-15T11:35:12;7.77;;;7.07;;
13483;SDS011;6814;57.786;12.080;2023-04-15T11:37:39;9.97;;;7.57;;
13483;SDS011;6814;57.786;12.080;2023-04-15T11:40:08;7.10;;;6.23;;
13483;SDS011;6814;57.786;12.080;2023-04-15T11:42:35;7.10;;;6.40;;
13483;SDS011;6814;57.786;12.080;2023-04-15T11:45:08;7.53;;;6.40;;
13483;SDS011;6814;57.786;12.080;2023-04-15T11:47:38;7.30;;;6.60;;
13483;SDS011;6814;57.786;12.080;2023-04-15T11:50:14;7.30;;;6.43;;
13483;SDS011;6814;57.786;12.080;2023-04-15T11:52:40;6.90;;;6.17;;
13483;SDS011;6814;57.786;12.080;2023-04-15T11:55:08;8.50;;;6.70;;
13483;SDS011;6814;57.786;12.080;2023-04-15T11:57:35;7.17;;;5.97;;
13483;SDS011;6814;57.786;12.080;2023-04-15T12:00:01;6.20;;;5.60;;
13483;SDS011;6814;57.786;12.080;2023-04-15T12:02:30;6.77;;;6.07;;
13483;SDS011;6814;57.786;12.080;2023-04-15T12:05:01;7.77;;;6.00;;
13483;SDS011;6814;57.786;12.080;2023-04-15T12:07:29;6.30;;;5.67;;
13483;SDS011;6814;57.786;12.080;2023-04-15T12:09:55;7.67;;;5.70;;
13483;SDS011;6814;57.786;12.080;2023-04-15T12:12:26;6.50;;;5.90;;
13483;SDS011;6814;57.786;12.080;2023-04-15T12:14:55;6.83;;;5.80;;
13483;SDS011;6814;57.786;12.080;2023-04-15T12:17:21;6.13;;;5.50;;
13483;SDS011;6814;57.786;12.080;2023-04-15T12:19:54;6.63;;;5.23;;
13483;SDS011;6814;57.786;12.080;2023-04-15T12:22:20;6.70;;;5.50;;
13483;SDS011;6814;57.786;12.080;2023-04-15T12:24:47;6.27;;;5.63;;
13483;SDS011;6814;57.786;12.080;2023-04-15T12:27:24;5.73;;;5.23;;
13483;SDS011;6814;57.786;12.080;2023-04-15T12:29:56;7.27;;;5.47;;
13483;SDS011;6814;57.786;12.080;2023-04-15T12:32:28;7.27;;;4.93;;
13483;SDS011;6814;57.786;12.080;2023-04-15T12:34:55;5.87;;;4.67;;
13483;SDS011;6814;57.786;12.080;2023-04-15T12:37:22;7.60;;;5.37;;
13483;SDS011;6814;57.786;12.080;2023-04-15T12:39:48;6.13;;;5.00;;
13483;SDS011;6814;57.786;12.080;2023-04-15T12:42:15;5.67;;;5.13;;
13483;SDS011;6814;57.786;12.080;2023-04-15T12:44:42;5.90;;;5.37;;
13483;SDS011;6814;57.786;12.080;2023-04-15T12:47:10;5.40;;;4.90;;
13483;SDS011;6814;57.786;12.080;2023-04-15T12:49:36;7.27;;;5.10;;
13483;SDS011;6814;57.786;12.080;2023-04-15T12:52:03;5.10;;;4.60;;
13483;SDS011;6814;57.786;12.080;2023-04-15T12:54:30;5.77;;;4.60;;
13483;SDS011;6814;57.786;12.080;2023-04-15T12:56:57;7.13;;;4.83;;
13483;SDS011;6814;57.786;12.080;2023-04-15T12:59:24;5.93;;;4.57;;
13483;SDS011;6814;57.786;12.080;2023-04-15T13:01:50;4.60;;;4.23;;
13483;SDS011;6814;57.786;12.080;2023-04-15T13:04:19;5.77;;;4.50;;
13483;SDS011;6814;57.786;12.080;2023-04-15T13:06:45;5.67;;;4.43;;
13483;SDS011;6814;57.786;12.080;2023-04-15T13:09:12;4.70;;;4.20;;
13483;SDS011;6814;57.786;12.080;2023-04-15T13:11:38;5.73;;;4.03;;
13483;SDS011;6814;57.786;12.080;2023-04-15T13:14:06;5.30;;;4.50;;
13483;SDS011;6814;57.786;12.080;2023-04-15T13:16:33;7.00;;;4.53;;
13483;SDS011;6814;57.786;12.080;2023-04-15T13:19:00;6.00;;;4.33;;
13483;SDS011;6814;57.786;12.080;2023-04-15T13:21:28;5.40;;;4.33;;
13483;SDS011;6814;57.786;12.080;2023-04-15T13:23:56;4.53;;;4.13;;
13483;SDS011;6814;57.786;12.080;2023-04-15T13:26:22;6.67;;;4.60;;
13483;SDS011;6814;57.786;12.080;2023-04-15T13:28:48;5.80;;;4.20;;
13483;SDS011;6814;57.786;12.080;2023-04-15T13:31:15;4.70;;;4.20;;
13483;SDS011;6814;57.786;12.080;2023-04-15T13:33:41;4.30;;;3.90;;
13483;SDS011;6814;57.786;12.080;2023-04-15T13:36:08;4.60;;;4.17;;
13483;SDS011;6814;57.786;12.080;2023-04-15T13:38:35;4.97;;;4.40;;
13483;SDS011;6814;57.786;12.080;2023-04-15T13:41:02;5.87;;;4.67;;
13483;SDS011;6814;57.786;12.080;2023-04-15T13:43:28;4.60;;;3.70;;
13483;SDS011;6814;57.786;12.080;2023-04-15T13:45:55;5.83;;;4.60;;
13483;SDS011;6814;57.786;12.080;2023-04-15T13:48:22;4.50;;;4.10;;
13483;SDS011;6814;57.786;12.080;2023-04-15T13:50:48;4.50;;;3.90;;
13483;SDS011;6814;57.786;12.080;2023-04-15T13:53:15;3.83;;;3.53;;
13483;SDS011;6814;57.786;12.080;2023-04-15T13:55:43;6.37;;;4.20;;
13483;SDS011;6814;57.786;12.080;2023-04-15T13:58:09;5.47;;;4.10;;
13483;SDS011;6814;57.786;12.080;2023-04-15T14:00:36;4.70;;;4.27;;
13483;SDS011;6814;57.786;12.080;2023-04-15T14:03:02;4.77;;;3.97;;
13483;SDS011;6814;57.786;12.080;2023-04-15T14:05:29;5.80;;;4.00;;
13483;SDS011;6814;57.786;12.080;2023-04-15T14:07:55;5.20;;;3.63;;
13483;SDS011;6814;57.786;12.080;2023-04-15T14:10:21;5.70;;;3.40;;
13483;SDS011;6814;57.786;12.080;2023-04-15T14:12:49;3.97;;;3.57;;
13483;SDS011;6814;57.786;12.080;2023-04-15T14:15:16;5.13;;;3.50;;
13483;SDS011;6814;57.786;12.080;2023-04-15T14:17:42;5.17;;;3.50;;
13483;SDS011;6814;57.786;12.080;2023-04-15T14:20:09;5.03;;;3.60;;
13483;SDS011;6814;57.786;12.080;2023-04-15T14:22:35;4.83;;;3.60;;
13483;SDS011;6814;57.786;12.080;2023-04-15T14:25:01;3.80;;;3.50;;
13483;SDS011;6814;57.786;12.080;2023-04-15T14:27:28;5.53;;;3.97;;
13483;SDS011;6814;57.786;12.080;2023-04-15T14:29:56;3.97;;;3.67;;
13483;SDS011;6814;57.786;12.080;2023-04-15T14:32:23;3.90;;;3.43;;
13483;SDS011;6814;57.786;12.080;2023-04-15T14:34:50;3.57;;;3.27;;
13483;SDS011;6814;57.786;12.080;2023-04-15T14:37:16;3.63;;;3.33;;